Time;durP1;ratioP1;P1;durP2;ratioP2;P2;SDS_P1;SDS_P2;PMS_P1;PMS_P2;Temp;Humidity;BMP_temperature;BMP_pressure;BME280_temperature;BME280_humidity;BME280_pressure;Samples;Min_cycle;Max_cycle;Signal;HPM_P1;HPM_P2
2022/10/19 00:01:22;;;;;;;10.27;4.25;;;;;;;10.28;81.61;101121.78;5050155;28;20466;-79
2022/10/19 00:03:50;;;;;;;6.72;3.33;;;;;;;10.35;82.62;101122.53;5048252;28;20033;-80
2022/10/19 00:06:18;;;;;;;7.82;3.10;;;;;;;10.45;83.22;101126.63;5049501;28;20033;-86
2022/10/19 00:08:43;;;;;;;9.05;2.80;;;;;;;10.49;82.68;101120.50;5049970;28;20033;-86
2022/10/19 00:11:08;;;;;;;7.90;3.60;;;;;;;10.70;81.64;101118.31;5050093;28;20036;-88
2022/10/19 00:13:34;;;;;;;8.68;4.00;;;;;;;10.59;81.58;101114.50;5049860;28;20037;-88
2022/10/19 00:16:00;;;;;;;10.98;4.32;;;;;;;10.49;81.98;101117.78;5050432;28;20052;-90
2022/10/19 00:18:25;;;;;;;9.65;4.28;;;;;;;10.37;82.04;101108.69;5050115;28;20519;-90
2022/10/19 00:20:51;;;;;;;10.38;3.45;;;;;;;10.17;83.09;101115.19;5069951;28;20032;-85
2022/10/19 00:23:16;;;;;;;10.63;5.18;;;;;;;10.25;81.99;101119.53;5056948;28;20043;-86
2022/10/19 00:25:41;;;;;;;8.40;4.07;;;;;;;10.23;82.04;101116.22;5049859;28;20040;-86
2022/10/19 00:28:07;;;;;;;9.63;4.03;;;;;;;10.30;81.66;101113.38;5049867;28;20029;-86
2022/10/19 00:30:36;;;;;;;9.65;4.20;;;;;;;10.28;81.85;101121.78;5050279;28;20260;-85
2022/10/19 00:33:01;;;;;;;10.63;4.43;;;;;;;10.31;82.14;101115.91;5050434;28;20614;-86
2022/10/19 00:35:26;;;;;;;14.55;3.92;;;;;;;10.22;81.75;101111.81;5053574;28;20107;-86
2022/10/19 00:37:52;;;;;;;8.88;3.22;;;;;;;10.16;82.05;101108.94;5053880;28;20361;-85
2022/10/19 00:40:17;;;;;;;9.00;4.47;;;;;;;10.14;82.01;101108.34;5053556;28;20056;-86
2022/10/19 00:42:42;;;;;;;9.02;4.43;;;;;;;10.03;81.92;101109.94;5053944;28;20086;-89
2022/10/19 00:45:13;;;;;;;10.03;4.93;;;;;;;10.03;82.44;101098.19;5053754;28;20032;-88
2022/10/19 00:47:40;;;;;;;11.05;4.70;;;;;;;10.09;81.15;101108.19;5054090;28;20534;-88
2022/10/19 00:50:07;;;;;;;8.80;3.70;;;;;;;9.99;81.64;101102.44;5053891;28;20056;-87
2022/10/19 00:52:32;;;;;;;10.10;4.32;;;;;;;10.12;81.62;101113.19;5051949;28;20096;-82
2022/10/19 00:54:58;;;;;;;12.82;4.63;;;;;;;10.03;83.52;101109.09;5052576;28;20488;-82
2022/10/19 00:57:27;;;;;;;12.80;4.15;;;;;;;10.09;82.55;101110.91;5052800;28;20056;-88
2022/10/19 00:59:53;;;;;;;8.75;4.72;;;;;;;10.04;82.17;101121.66;5053781;28;20029;-89
2022/10/19 01:02:18;;;;;;;14.05;4.32;;;;;;;9.97;82.08;101118.16;5053742;28;20033;-90
2022/10/19 01:04:47;;;;;;;11.15;3.92;;;;;;;9.84;81.99;101111.84;5052966;28;20502;-90
2022/10/19 01:07:13;;;;;;;12.68;4.03;;;;;;;9.87;82.12;101121.44;5052096;28;20056;-80
2022/10/19 01:09:38;;;;;;;8.18;3.67;;;;;;;9.81;81.73;101113.13;5051568;28;20049;-80
2022/10/19 01:12:16;;;;;;;15.80;5.45;;;;;;;9.85;81.21;101115.38;5051799;28;20040;-80
2022/10/19 01:15:10;;;;;;;14.65;3.67;;;;;;;9.74;80.96;101108.81;5051524;28;20491;-81
2022/10/19 01:18:05;;;;;;;9.88;4.75;;;;;;;9.67;81.73;101106.97;5051870;28;20495;-82
2022/10/19 01:20:59;;;;;;;14.98;5.22;;;;;;;9.62;81.33;101114.97;5050584;28;20102;-88
2022/10/19 01:24:04;;;;;;;13.52;4.10;;;;;;;9.72;81.46;101105.47;5052324;28;20488;-88
2022/10/19 01:26:45;;;;;;;10.52;4.10;;;;;;;9.68;81.95;101100.47;5052587;28;20033;-86
2022/10/19 01:29:29;;;;;;;11.82;5.68;;;;;;;9.77;81.50;101100.16;5052411;28;20032;-86
2022/10/19 01:32:12;;;;;;;15.45;4.85;;;;;;;9.71;81.39;101095.63;5053142;28;20368;-88
2022/10/19 01:34:48;;;;;;;11.55;5.13;;;;;;;9.78;81.29;101094.47;5031940;28;20512;-88
2022/10/19 01:37:31;;;;;;;13.23;4.22;;;;;;;9.85;81.00;101091.69;5032735;28;20041;-88
2022/10/19 01:40:07;;;;;;;19.38;4.78;;;;;;;9.91;81.76;101092.69;5032682;28;20096;-88
2022/10/19 01:42:48;;;;;;;12.07;5.03;;;;;;;9.99;81.87;101094.25;5039673;28;20476;-90
2022/10/19 01:45:24;;;;;;;10.82;4.80;;;;;;;9.99;81.92;101088.81;5051097;28;20500;-90
2022/10/19 01:47:55;;;;;;;9.18;4.45;;;;;;;9.98;81.35;101082.53;5052178;28;20025;-90
2022/10/19 01:50:34;;;;;;;10.35;4.72;;;;;;;10.02;81.61;101074.75;5052656;28;20040;-81
2022/10/19 01:53:02;;;;;;;19.85;5.13;;;;;;;9.93;81.60;101072.31;5050496;28;20037;-80
2022/10/19 01:55:28;;;;;;;9.45;4.70;;;;;;;9.95;82.16;101069.38;5050812;28;20051;-88
2022/10/19 01:58:01;;;;;;;13.60;5.45;;;;;;;9.90;82.34;101074.69;5052028;28;20144;-88
2022/10/19 02:00:30;;;;;;;12.85;4.80;;;;;;;9.90;82.45;101071.97;5052116;28;20086;-88
2022/10/19 02:02:56;;;;;;;7.22;3.33;;;;;;;9.97;82.54;101066.41;5051281;28;20123;-89
2022/10/19 02:05:27;;;;;;;9.20;4.00;;;;;;;9.94;82.40;101073.16;5052351;28;20131;-88
2022/10/19 02:07:57;;;;;;;9.60;4.05;;;;;;;9.96;81.84;101070.19;5052089;28;20040;-88
2022/10/19 02:10:24;;;;;;;9.45;4.55;;;;;;;9.86;81.44;101078.91;5052211;28;20075;-82
2022/10/19 02:12:52;;;;;;;9.65;3.45;;;;;;;9.90;81.22;101071.97;5050412;28;20029;-82
2022/10/19 02:15:22;;;;;;;7.57;2.95;;;;;;;9.71;81.56;101076.56;5050695;28;20035;-85
2022/10/19 02:17:51;;;;;;;7.15;3.33;;;;;;;9.53;81.82;101073.63;5051640;28;20452;-88
2022/10/19 02:20:16;;;;;;;8.70;4.68;;;;;;;9.63;81.68;101067.66;5051687;28;20041;-88
2022/10/19 02:22:42;;;;;;;8.15;3.67;;;;;;;9.62;81.17;101065.97;5051178;28;20470;-89
2022/10/19 02:25:08;;;;;;;8.30;2.92;;;;;;;9.53;80.58;101072.78;5051488;28;20033;-89
2022/10/19 02:27:34;;;;;;;12.02;3.33;;;;;;;9.50;80.76;101071.31;5051320;28;20028;-88
2022/10/19 02:30:00;;;;;;;6.40;3.55;;;;;;;9.52;80.28;101065.69;5051328;28;20036;-88
2022/10/19 02:32:26;;;;;;;13.50;4.40;;;;;;;9.39;80.57;101078.38;5051426;28;20485;-88
2022/10/19 02:34:51;;;;;;;10.00;3.67;;;;;;;9.24;81.38;101073.25;5050952;28;20035;-88
2022/10/19 02:37:17;;;;;;;9.02;4.32;;;;;;;9.38;81.99;101071.25;5050874;28;20029;-80
2022/10/19 02:39:42;;;;;;;6.32;3.53;;;;;;;9.51;81.20;101069.44;5051877;28;20029;-88
2022/10/19 02:42:26;;;;;;;16.35;5.22;;;;;;;9.46;81.80;101060.06;5051474;28;20442;-88
2022/10/19 02:45:05;;;;;;;11.27;3.38;;;;;;;9.60;81.58;101062.63;5050705;28;20040;-80
2022/10/19 02:47:35;;;;;;;14.73;4.13;;;;;;;9.68;81.76;101051.44;5049687;28;20025;-80
2022/10/19 02:50:05;;;;;;;12.52;4.38;;;;;;;9.65;81.34;101059.25;5050538;28;20262;-80
2022/10/19 02:52:31;;;;;;;6.68;3.25;;;;;;;9.57;81.58;101057.66;5047956;28;20024;-80
2022/10/19 02:54:56;;;;;;;9.43;3.42;;;;;;;9.57;81.39;101063.09;5050685;28;20112;-88
2022/10/19 02:57:24;;;;;;;5.50;3.03;;;;;;;9.51;81.10;101055.84;5050055;28;20053;-88
2022/10/19 02:59:50;;;;;;;8.73;3.53;;;;;;;9.54;81.01;101055.41;5050201;28;20037;-86
2022/10/19 03:02:17;;;;;;;7.03;4.57;;;;;;;9.56;81.36;101055.97;5091406;22;20064;-87
2022/10/19 03:04:44;;;;;;;9.52;4.30;;;;;;;9.63;80.78;101051.31;5049806;28;20162;-88
2022/10/19 03:07:13;;;;;;;10.52;4.43;;;;;;;9.67;80.50;101057.13;5048620;28;20037;-86
2022/10/19 03:09:39;;;;;;;8.55;4.03;;;;;;;9.66;80.68;101055.47;5053961;22;20483;-91
2022/10/19 03:12:04;;;;;;;9.05;3.53;;;;;;;9.61;80.56;101049.84;5051823;28;20044;-91
2022/10/19 03:14:29;;;;;;;5.75;3.15;;;;;;;9.51;80.55;101048.50;5051608;28;20025;-91
2022/10/19 03:16:55;;;;;;;8.00;4.00;;;;;;;9.42;81.38;101061.56;5054209;28;20039;-86
2022/10/19 03:19:20;;;;;;;8.23;3.27;;;;;;;9.41;81.81;101051.75;5060913;28;20261;-86
2022/10/19 03:21:45;;;;;;;9.23;5.30;;;;;;;9.48;81.81;101053.56;5074013;28;20348;-82
2022/10/19 03:24:11;;;;;;;7.83;4.03;;;;;;;9.38;81.45;101052.19;5054763;28;20059;-82
2022/10/19 03:26:37;;;;;;;7.90;3.90;;;;;;;9.44;81.11;101048.56;5052198;28;20369;-80
2022/10/19 03:29:02;;;;;;;11.27;4.00;;;;;;;9.50;80.76;101043.28;5053134;28;20104;-80
2022/10/19 03:31:28;;;;;;;7.57;3.42;;;;;;;9.37;81.24;101044.25;5053077;28;20035;-80
2022/10/19 03:33:53;;;;;;;11.43;4.83;;;;;;;9.28;81.41;101051.88;5052449;28;20044;-80
2022/10/19 03:36:20;;;;;;;12.77;5.32;;;;;;;9.28;81.01;101057.31;5053144;28;20261;-86
2022/10/19 03:38:48;;;;;;;7.32;3.80;;;;;;;9.24;81.31;101048.78;5053565;28;20503;-86
2022/10/19 03:41:13;;;;;;;8.10;3.13;;;;;;;9.19;81.36;101063.03;5053747;28;20056;-82
2022/10/19 03:43:40;;;;;;;8.48;3.75;;;;;;;9.19;80.57;101054.88;5052669;28;20432;-82
2022/10/19 03:46:05;;;;;;;8.48;3.75;;;;;;;9.15;80.63;101059.13;5053299;28;20033;-86
2022/10/19 03:48:32;;;;;;;8.10;4.20;;;;;;;9.17;81.32;101050.72;5053416;28;20118;-86
2022/10/19 03:51:07;;;;;;;7.05;3.88;;;;;;;9.31;81.09;101044.09;5051828;28;20090;-91
2022/10/19 03:53:33;;;;;;;10.85;5.13;;;;;;;9.38;81.29;101052.19;5050809;28;20033;-91
2022/10/19 03:56:07;;;;;;;11.20;4.68;;;;;;;9.34;81.53;101057.25;5050841;28;20056;-81
2022/10/19 03:58:33;;;;;;;;;;;;;;;9.27;81.62;101058.38;5051091;28;20098;-82
2022/10/19 04:00:59;;;;;;;11.85;5.22;;;;;;;9.25;81.99;101050.44;5050688;28;19932;-82
2022/10/19 04:03:24;;;;;;;11.20;4.22;;;;;;;9.29;82.19;101050.81;5052334;28;20033;-82
2022/10/19 04:05:49;;;;;;;8.20;4.40;;;;;;;9.36;81.68;101069.81;5053214;28;20029;-86
2022/10/19 04:08:15;;;;;;;10.43;4.60;;;;;;;9.34;81.63;101064.56;5055090;28;20463;-86
2022/10/19 04:10:40;;;;;;;11.07;4.55;;;;;;;9.36;82.18;101062.47;5057014;28;20068;-91
2022/10/19 04:13:05;;;;;;;9.07;3.97;;;;;;;9.34;81.46;101065.41;5058203;28;20036;-91
2022/10/19 04:15:31;;;;;;;9.00;4.60;;;;;;;9.36;81.62;101070.63;5056260;28;20281;-86
2022/10/19 04:17:56;;;;;;;9.73;4.27;;;;;;;9.40;81.75;101058.25;5057217;28;20475;-86
2022/10/19 04:20:21;;;;;;;8.20;3.97;;;;;;;9.53;81.74;101067.34;5057480;28;20350;-91
2022/10/19 04:22:46;;;;;;;9.95;3.95;;;;;;;9.62;81.40;101063.25;5057445;28;20331;-91
2022/10/19 04:25:11;;;;;;;11.60;4.30;;;;;;;9.44;81.73;101064.06;5057296;28;20029;-91
2022/10/19 04:27:37;;;;;;;9.67;3.60;;;;;;;9.53;81.74;101061.88;5057413;28;20269;-86
2022/10/19 04:30:02;;;;;;;23.60;4.27;;;;;;;9.61;80.40;101058.88;5057192;28;20282;-86
2022/10/19 04:32:28;;;;;;;13.70;4.93;;;;;;;9.60;81.20;101056.38;5052434;28;20439;-89
2022/10/19 04:34:53;;;;;;;10.23;4.77;;;;;;;9.59;81.01;101050.09;5036796;28;20518;-89
2022/10/19 04:37:18;;;;;;;9.57;3.90;;;;;;;9.43;81.97;101048.81;5044961;28;20277;-88
2022/10/19 04:39:43;;;;;;;9.90;4.65;;;;;;;9.57;81.59;101052.22;5037358;28;20346;-88
2022/10/19 04:42:09;;;;;;;8.47;3.87;;;;;;;9.48;81.46;101051.66;5038239;28;20036;-81
2022/10/19 04:44:34;;;;;;;11.43;3.90;;;;;;;9.48;81.07;101059.03;5056418;28;20762;-80
2022/10/19 04:46:59;;;;;;;6.63;3.92;;;;;;;9.35;81.68;101060.81;5053234;28;20052;-81
2022/10/19 04:49:25;;;;;;;9.57;4.67;;;;;;;9.29;81.69;101050.81;5053043;28;20025;-80
2022/10/19 04:51:50;;;;;;;7.37;3.53;;;;;;;9.35;82.24;101049.94;5054780;28;20285;-88
2022/10/19 04:54:15;;;;;;;8.63;4.47;;;;;;;9.44;81.44;101051.28;5054641;28;20282;-89
2022/10/19 04:56:40;;;;;;;9.33;4.20;;;;;;;9.46;81.72;101043.72;5055886;28;20344;-88
2022/10/19 04:59:06;;;;;;;9.57;4.20;;;;;;;9.39;81.72;101050.31;5056494;28;20258;-88
2022/10/19 05:01:31;;;;;;;7.55;3.47;;;;;;;9.42;81.82;101049.84;5056381;28;20671;-80
2022/10/19 05:03:59;;;;;;;9.85;3.92;;;;;;;9.33;81.94;101042.00;5054746;28;20033;-80
2022/10/19 05:06:25;;;;;;;11.43;3.75;;;;;;;9.33;82.72;101041.16;5056168;28;20028;-86
2022/10/19 05:08:51;;;;;;;12.23;4.88;;;;;;;9.39;82.21;101040.25;5054120;28;20043;-86
2022/10/19 05:11:17;;;;;;;10.20;4.82;;;;;;;9.29;82.61;101032.63;5055329;28;20044;-88
2022/10/19 05:13:43;;;;;;;7.95;4.13;;;;;;;9.27;82.73;101034.72;5055663;28;20063;-89
2022/10/19 05:16:12;;;;;;;8.93;4.13;;;;;;;9.31;82.76;101032.38;5056894;28;20028;-88
2022/10/19 05:18:37;;;;;;;12.88;4.43;;;;;;;9.27;83.74;101025.72;5055813;28;20029;-88
2022/10/19 05:21:05;;;;;;;8.85;3.67;;;;;;;9.27;83.36;101025.72;5056798;28;20523;-88
2022/10/19 05:23:31;;;;;;;8.55;3.78;;;;;;;9.34;83.44;101019.16;5055874;28;20028;-88
2022/10/19 05:26:05;;;;;;;8.95;3.80;;;;;;;9.31;83.41;101018.78;5056730;28;20028;-87
2022/10/19 05:28:31;;;;;;;11.00;3.72;;;;;;;9.40;83.25;101017.41;5056235;28;20032;-87
2022/10/19 05:31:07;;;;;;;12.70;5.95;;;;;;;9.34;83.94;101026.47;5056711;28;20037;-86
2022/10/19 05:33:34;;;;;;;11.10;4.18;;;;;;;9.33;84.10;101027.56;5055816;28;20032;-85
2022/10/19 05:36:09;;;;;;;9.70;4.85;;;;;;;9.29;83.60;101024.44;5056513;28;20104;-91
2022/10/19 05:38:34;;;;;;;13.20;5.53;;;;;;;9.38;83.86;101019.53;5056389;28;20055;-92
2022/10/19 05:40:59;;;;;;;8.47;4.33;;;;;;;9.39;83.72;101023.94;5056327;28;20081;-88
2022/10/19 05:43:24;;;;;;;11.83;4.77;;;;;;;9.39;83.46;101025.81;5055876;28;20270;-88
2022/10/19 05:45:50;;;;;;;9.43;4.77;;;;;;;9.45;83.70;101020.31;5056386;28;20262;-87
2022/10/19 05:48:15;;;;;;;10.33;4.63;;;;;;;9.36;83.50;101010.75;5055517;28;20266;-87
2022/10/19 05:50:51;;;;;;;8.07;4.13;;;;;;;9.44;83.57;101013.19;5055962;28;20262;-82
2022/10/19 05:53:16;;;;;;;10.52;5.18;;;;;;;9.44;83.76;101009.63;5055024;28;20297;-82
2022/10/19 05:55:42;;;;;;;8.47;3.67;;;;;;;9.38;83.55;101010.53;5051589;28;20064;-80
2022/10/19 05:58:08;;;;;;;10.88;4.22;;;;;;;9.46;83.28;101016.50;5034716;28;20259;-80
2022/10/19 06:00:33;;;;;;;9.77;5.07;;;;;;;9.35;83.91;101022.72;5035021;28;20594;-87
2022/10/19 06:02:58;;;;;;;7.97;4.30;;;;;;;9.44;82.91;101018.63;5043878;28;20087;-87
2022/10/19 06:05:23;;;;;;;9.20;4.37;;;;;;;9.36;83.40;101024.38;5055950;28;21061;-88
2022/10/19 06:07:48;;;;;;;11.30;5.70;;;;;;;9.26;83.69;101024.03;5055529;28;20357;-89
2022/10/19 06:10:14;;;;;;;7.90;4.07;;;;;;;9.38;83.66;101026.84;5054251;28;20289;-88
2022/10/19 06:12:39;;;;;;;9.73;4.93;;;;;;;9.39;84.04;101023.09;5054452;28;20266;-89
2022/10/19 06:15:05;;;;;;;8.80;4.27;;;;;;;9.53;83.08;101019.16;5055191;28;20486;-89
2022/10/19 06:17:30;;;;;;;10.10;4.13;;;;;;;9.59;82.42;101025.59;5042575;28;20267;-82
2022/10/19 06:19:55;;;;;;;9.35;4.18;;;;;;;9.40;83.08;101027.47;5049201;28;20025;-82
2022/10/19 06:22:21;;;;;;;9.17;3.70;;;;;;;9.57;81.16;101030.44;5055219;28;20112;-91
2022/10/19 06:24:46;;;;;;;7.82;3.45;;;;;;;9.33;81.79;101035.72;5055399;28;20319;-91
2022/10/19 06:27:11;;;;;;;10.13;4.60;;;;;;;9.35;82.49;101033.59;5055474;28;20025;-91
2022/10/19 06:29:36;;;;;;;10.33;3.77;;;;;;;9.40;82.43;101031.03;5055017;28;20254;-91
2022/10/19 06:32:02;;;;;;;10.35;5.18;;;;;;;9.31;82.73;101029.66;5055018;28;20752;-90
2022/10/19 06:34:27;;;;;;;11.90;5.00;;;;;;;9.30;83.08;101031.53;5075090;28;20120;-91
2022/10/19 06:36:52;;;;;;;9.75;3.92;;;;;;;9.37;83.11;101036.09;5073489;28;20032;-80
2022/10/19 06:39:18;;;;;;;8.80;4.07;;;;;;;9.43;83.02;101027.88;5074118;28;20033;-80
2022/10/19 06:41:43;;;;;;;9.77;5.33;;;;;;;9.48;83.12;101020.91;5074327;28;20841;-87
2022/10/19 06:44:08;;;;;;;17.60;4.03;;;;;;;9.41;83.44;101029.13;5056014;28;20261;-87
2022/10/19 06:46:33;;;;;;;12.00;4.67;;;;;;;9.39;84.08;101026.66;5053707;28;20254;-91
2022/10/19 06:49:00;;;;;;;8.37;4.13;;;;;;;9.53;83.63;101034.66;5054359;28;20269;-91
2022/10/19 06:51:28;;;;;;;10.38;5.13;;;;;;;9.33;84.37;101030.28;5054430;28;20266;-91
2022/10/19 06:53:54;;;;;;;14.50;5.28;;;;;;;9.48;84.09;101034.53;5053885;28;20029;-91
2022/10/19 06:56:20;;;;;;;12.73;5.82;;;;;;;9.50;83.36;101035.94;5054263;28;20028;-87
2022/10/19 06:58:45;;;;;;;11.27;4.93;;;;;;;9.64;82.92;101039.34;5053892;28;20032;-86
2022/10/19 07:01:12;;;;;;;11.73;4.82;;;;;;;9.68;82.91;101026.13;5052429;28;20091;-91
2022/10/19 07:03:38;;;;;;;8.88;4.53;;;;;;;9.66;82.88;101034.50;5053543;28;20033;-90
2022/10/19 07:06:07;;;;;;;10.07;4.18;;;;;;;9.65;83.28;101024.69;5054475;28;20059;-88
2022/10/19 07:08:34;;;;;;;13.93;5.35;;;;;;;9.73;82.96;101023.53;5054385;28;20044;-88
2022/10/19 07:11:02;;;;;;;9.18;4.25;;;;;;;9.71;83.27;101030.25;5053575;28;20045;-79
2022/10/19 07:13:28;;;;;;;11.55;4.85;;;;;;;9.73;83.15;101036.31;5051461;28;20498;-79
2022/10/19 07:16:05;;;;;;;10.70;5.65;;;;;;;9.77;82.79;101032.06;5052404;28;20093;-88
2022/10/19 07:18:32;;;;;;;13.25;5.72;;;;;;;9.73;82.96;101033.59;5051753;28;20099;-88
2022/10/19 07:20:59;;;;;;;11.40;5.28;;;;;;;9.76;83.08;101038.59;5052957;28;20079;-88
2022/10/19 07:23:27;;;;;;;10.13;5.07;;;;;;;9.88;82.62;101027.75;5053527;28;20032;-88
2022/10/19 07:25:54;;;;;;;11.27;5.60;;;;;;;9.83;82.83;101028.44;5053154;28;20029;-88
2022/10/19 07:28:20;;;;;;;11.10;5.43;;;;;;;9.89;82.87;101029.41;5053989;28;20021;-88
2022/10/19 07:30:45;;;;;;;9.95;5.28;;;;;;;9.84;83.15;101034.72;5053968;28;20029;-86
2022/10/19 07:33:11;;;;;;;10.43;4.28;;;;;;;9.77;83.06;101040.25;5053813;28;20060;-87
2022/10/19 07:35:36;;;;;;;13.67;5.10;;;;;;;9.78;83.38;101031.84;5052841;28;20024;-80
2022/10/19 07:38:01;;;;;;;10.48;5.43;;;;;;;9.91;83.07;101035.47;5052835;28;20262;-80
2022/10/19 07:40:27;;;;;;;9.40;4.78;;;;;;;9.85;83.09;101030.94;5053529;28;20036;-87
2022/10/19 07:42:52;;;;;;;9.52;5.13;;;;;;;9.85;83.33;101037.22;5055133;28;20127;-87
2022/10/19 07:45:17;;;;;;;10.18;4.80;;;;;;;9.80;83.84;101034.38;5054069;28;20025;-91
2022/10/19 07:47:43;;;;;;;10.07;5.47;;;;;;;9.93;83.42;101034.19;5054030;28;20036;-90
2022/10/19 07:50:08;;;;;;;11.98;5.00;;;;;;;9.83;83.91;101039.34;5051703;28;20323;-90
2022/10/19 07:52:33;;;;;;;9.82;4.82;;;;;;;9.99;83.79;101037.03;5039237;28;20036;-90
2022/10/19 07:54:59;;;;;;;12.43;6.63;;;;;;;10.04;83.99;101045.38;5052623;28;20024;-90
2022/10/19 07:57:25;;;;;;;10.60;6.05;;;;;;;10.25;83.10;101051.41;5053425;28;20075;-82
2022/10/19 07:59:50;;;;;;;12.07;4.80;;;;;;;10.03;83.66;101044.53;5054018;28;20037;-82
2022/10/19 08:02:16;;;;;;;9.17;5.33;;;;;;;10.06;84.75;101037.81;5053307;28;20040;-91
2022/10/19 08:04:42;;;;;;;12.38;5.07;;;;;;;10.20;84.28;101043.91;5053596;28;20258;-91
2022/10/19 08:07:08;;;;;;;10.65;5.03;;;;;;;10.32;83.98;101051.28;5053883;28;20090;-85
2022/10/19 08:09:33;;;;;;;11.75;5.60;;;;;;;10.33;83.77;101059.22;5052530;28;20048;-85
2022/10/19 08:11:58;;;;;;;9.25;5.18;;;;;;;10.37;84.01;101051.44;5050999;28;20273;-86
2022/10/19 08:14:24;;;;;;;11.82;5.47;;;;;;;10.41;83.93;101059.97;5046412;28;20033;-85
2022/10/19 08:16:50;;;;;;;10.82;5.55;;;;;;;10.46;84.19;101052.75;5048670;28;20116;-88
2022/10/19 08:19:15;;;;;;;9.10;4.75;;;;;;;10.45;84.53;101053.84;5052798;28;20052;-87
2022/10/19 08:21:43;;;;;;;11.52;5.13;;;;;;;10.53;84.67;101046.41;5054009;28;20037;-85
2022/10/19 08:24:10;;;;;;;10.52;6.50;;;;;;;10.69;84.38;101053.09;5053384;28;20032;-85
2022/10/19 08:26:37;;;;;;;9.10;5.53;;;;;;;10.71;84.34;101049.06;5053762;28;20056;-88
2022/10/19 08:29:09;;;;;;;10.90;5.68;;;;;;;10.94;83.65;101055.59;5053720;28;20079;-88
2022/10/19 08:31:34;;;;;;;12.45;5.18;;;;;;;10.98;83.53;101058.72;5053570;28;20021;-90
2022/10/19 08:34:00;;;;;;;14.18;6.43;;;;;;;10.97;84.12;101057.03;5052871;28;20148;-90
2022/10/19 08:36:26;;;;;;;10.27;4.53;;;;;;;11.11;83.52;101048.63;5049953;28;20089;-90
2022/10/19 08:38:52;;;;;;;10.18;5.65;;;;;;;11.14;83.75;101043.53;5039404;28;20041;-90
2022/10/19 08:41:23;;;;;;;10.18;4.97;;;;;;;11.13;83.93;101043.75;5053836;28;20490;-87
2022/10/19 08:44:13;;;;;;;12.70;5.60;;;;;;;11.21;84.57;101057.03;5054548;28;20037;-88
2022/10/19 08:46:41;;;;;;;12.60;5.80;;;;;;;11.28;84.27;101057.78;5053421;28;20059;-82
2022/10/19 08:49:11;;;;;;;14.77;5.57;;;;;;;11.34;84.48;101058.72;5052335;28;20029;-82
2022/10/19 08:51:39;;;;;;;13.20;5.88;;;;;;;11.48;84.33;101051.09;5052840;28;20383;-83
2022/10/19 08:54:12;;;;;;;10.90;5.00;;;;;;;11.46;84.53;101046.94;5053672;28;20061;-82
2022/10/19 08:56:48;;;;;;;8.82;4.28;;;;;;;11.56;84.31;101048.00;5057052;28;20028;-86
2022/10/19 08:59:22;;;;;;;9.18;4.75;;;;;;;11.67;83.82;101043.56;5057221;28;20037;-86
2022/10/19 09:01:57;;;;;;;10.15;4.82;;;;;;;11.71;84.37;101033.03;5056409;28;20043;-80
2022/10/19 09:04:43;;;;;;;9.93;4.35;;;;;;;11.95;82.65;101032.94;5055178;28;20028;-80
2022/10/19 09:07:23;;;;;;;17.92;4.88;;;;;;;12.05;81.97;101026.84;5039815;28;20025;-89
2022/10/19 09:10:00;;;;;;;8.98;4.03;;;;;;;12.04;81.55;101025.19;5041703;28;20048;-88
2022/10/19 09:12:36;;;;;;;11.63;3.90;;;;;;;12.05;81.43;101026.84;5053492;28;20039;-92
2022/10/19 09:15:05;;;;;;;6.88;3.08;;;;;;;12.23;80.34;101023.13;5047708;28;20021;-92
2022/10/19 09:17:31;;;;;;;14.50;3.13;;;;;;;12.32;79.48;101018.09;5053948;28;20048;-91
2022/10/19 09:20:12;;;;;;;8.52;2.95;;;;;;;12.38;79.33;101019.00;5047341;28;20071;-93
2022/10/19 09:22:38;;;;;;;7.22;2.80;;;;;;;12.48;78.31;101019.19;5054677;28;20064;-80
2022/10/19 09:25:33;;;;;;;5.35;2.70;;;;;;;12.55;78.67;101007.25;5054707;28;20053;-80
2022/10/19 09:28:13;;;;;;;6.85;2.30;;;;;;;12.61;78.42;101007.09;5031034;28;20057;-82
2022/10/19 09:30:41;;;;;;;8.30;3.50;;;;;;;12.66;77.86;101008.25;5050534;28;20029;-94
2022/10/19 09:33:14;;;;;;;5.63;1.92;;;;;;;12.59;78.08;100998.28;5055821;28;20033;-92
2022/10/19 09:35:43;;;;;;;10.80;3.05;;;;;;;12.59;77.46;100987.34;5056145;28;20675;-91
2022/10/19 09:38:11;;;;;;;14.45;3.33;;;;;;;12.59;77.76;100992.00;5056356;28;20075;-90
2022/10/19 09:40:36;;;;;;;10.32;2.00;;;;;;;12.72;77.65;100990.84;5055880;28;20435;-88
2022/10/19 09:43:18;;;;;;;9.45;1.90;;;;;;;12.73;76.38;100987.84;5055834;28;20033;-88
2022/10/19 09:46:08;;;;;;;4.47;1.67;;;;;;;12.86;74.64;100987.75;5056316;28;20119;-85
2022/10/19 09:48:53;;;;;;;5.30;1.27;;;;;;;12.88;74.34;100980.97;5055848;28;20087;-85
2022/10/19 09:51:20;;;;;;;6.07;2.40;;;;;;;12.79;73.65;100974.25;5055501;28;20049;-92
2022/10/19 09:53:49;;;;;;;6.60;1.73;;;;;;;12.73;74.87;100976.09;5069455;28;20040;-92
2022/10/19 09:56:23;;;;;;;6.30;2.05;;;;;;;12.81;74.52;100975.66;5075916;28;20032;-87
2022/10/19 09:58:51;;;;;;;6.75;2.80;;;;;;;13.01;72.83;100976.22;5075482;28;20024;-88
2022/10/19 10:01:28;;;;;;;10.55;1.40;;;;;;;12.94;72.34;100969.00;5076250;28;20097;-93
2022/10/19 10:04:04;;;;;;;4.80;1.25;;;;;;;12.95;72.95;100967.09;5058958;28;20490;-93
2022/10/19 10:06:29;;;;;;;4.97;1.67;;;;;;;12.98;72.99;100958.38;5055623;28;20052;-93
2022/10/19 10:08:58;;;;;;;5.87;1.70;;;;;;;13.12;72.38;100955.31;5054651;28;20029;-93
2022/10/19 10:11:26;;;;;;;4.45;1.98;;;;;;;13.21;70.87;100961.16;5055408;28;20262;-93
2022/10/19 10:13:53;;;;;;;3.88;1.05;;;;;;;13.24;70.96;100944.22;5055503;28;20033;-92
2022/10/19 10:16:23;;;;;;;14.95;3.35;;;;;;;13.26;71.03;100942.06;5058188;28;20079;-92
2022/10/19 10:18:58;;;;;;;5.00;2.05;;;;;;;13.34;70.48;100943.53;5075144;28;20038;-92
2022/10/19 10:21:48;;;;;;;39.58;4.93;;;;;;;13.40;70.74;100946.06;5075678;28;20586;-91
2022/10/19 10:24:15;;;;;;;18.67;2.72;;;;;;;13.33;71.08;100955.56;5055175;28;20037;-92
2022/10/19 10:26:44;;;;;;;7.93;1.90;;;;;;;13.29;71.09;100950.59;5054444;28;20463;-87
2022/10/19 10:29:21;;;;;;;16.55;1.95;;;;;;;13.45;70.66;100950.78;5055122;28;20020;-87
2022/10/19 10:31:57;;;;;;;6.00;1.95;;;;;;;13.54;70.10;100943.81;5055076;28;20025;-88
2022/10/19 10:34:39;;;;;;;4.63;1.85;;;;;;;13.67;69.66;100943.66;5034981;28;20033;-88
2022/10/19 10:37:09;;;;;;;3.80;1.80;;;;;;;13.60;70.43;100938.38;5035484;28;20101;-88
2022/10/19 10:39:42;;;;;;;5.72;2.13;;;;;;;13.74;69.99;100934.16;5035417;28;20040;-88
2022/10/19 10:42:14;;;;;;;8.75;1.95;;;;;;;13.89;70.02;100936.22;5036749;28;20037;-88
2022/10/19 10:44:44;;;;;;;9.63;2.90;;;;;;;13.97;69.77;100936.84;5054693;28;20021;-88
2022/10/19 10:47:15;;;;;;;6.38;2.35;;;;;;;13.98;68.68;100927.53;5051676;28;20037;-88
2022/10/19 10:49:41;;;;;;;5.80;2.28;;;;;;;13.86;68.95;100928.53;5042937;28;20403;-88
2022/10/19 10:52:14;;;;;;;4.18;1.88;;;;;;;13.95;68.98;100928.88;5051542;28;20037;-87
2022/10/19 10:54:56;;;;;;;4.37;2.10;;;;;;;13.94;68.88;100926.41;5055141;28;20036;-87
2022/10/19 10:57:26;;;;;;;10.18;2.00;;;;;;;13.94;69.58;100931.88;5054564;28;20072;-87
2022/10/19 11:00:11;;;;;;;8.13;2.92;;;;;;;13.99;69.27;100923.72;5054468;28;20029;-87
2022/10/19 11:02:56;;;;;;;8.85;2.42;;;;;;;14.17;68.41;100922.50;5053080;28;20395;-87
2022/10/19 11:05:29;;;;;;;6.35;2.67;;;;;;;14.18;68.75;100915.94;5054122;28;20028;-92
2022/10/19 11:08:10;;;;;;;6.55;2.22;;;;;;;14.32;68.24;100913.56;5053254;28;20082;-93
2022/10/19 11:10:45;;;;;;;7.53;2.35;;;;;;;14.31;68.85;100919.31;5053591;28;20106;-88
2022/10/19 11:13:19;;;;;;;4.07;1.73;;;;;;;14.43;67.95;100910.91;5052531;28;20029;-87
2022/10/19 11:15:53;;;;;;;7.22;2.65;;;;;;;14.48;68.01;100900.78;5052197;28;20128;-82
2022/10/19 11:18:24;;;;;;;9.55;1.73;;;;;;;14.47;68.22;100912.03;5068786;28;20608;-82
2022/10/19 11:21:01;;;;;;;4.50;2.33;;;;;;;14.44;67.63;100898.88;5072425;28;20036;-87
2022/10/19 11:23:59;;;;;;;5.00;1.83;;;;;;;14.51;67.55;100902.19;5052312;28;20796;-87
2022/10/19 11:26:52;;;;;;;5.20;2.17;;;;;;;14.48;68.37;100892.56;5031753;28;20434;-80
2022/10/19 11:29:23;;;;;;;4.03;1.65;;;;;;;14.58;67.86;100894.53;5031991;28;20091;-81
2022/10/19 11:31:53;;;;;;;8.13;2.10;;;;;;;14.56;68.31;100893.97;5033279;28;20072;-93
2022/10/19 11:34:37;;;;;;;9.05;2.35;;;;;;;14.68;67.70;100895.72;5050647;28;20124;-93
2022/10/19 11:37:29;;;;;;;5.63;2.42;;;;;;;14.77;66.69;100891.38;5052792;28;20029;-94